Time;durP1;ratioP1;P1;durP2;ratioP2;P2;SDS_P1;SDS_P2;PMS_P1;PMS_P2;Temp;Humidity;BMP_temperature;BMP_pressure;BME280_temperature;BME280_humidity;BME280_pressure;Samples;Min_cycle;Max_cycle;Signal;HPM_P1;HPM_P2
2022/01/28 00:01:52;;;;;;;8.03;4.28;;;;;;;3.44;87.46;98194.55;1722596;83;21024;-40
2022/01/28 00:04:13;;;;;;;;;;;;;;;3.50;87.51;98192.59;1723229;83;21509;-40
2022/01/28 00:06:39;;;;;;;8.53;4.03;;;;;;;3.51;87.28;98197.73;1722683;83;20725;-40
2022/01/28 00:09:05;;;;;;;6.25;3.72;;;;;;;3.50;87.27;98197.80;1722880;83;21027;-39
2022/01/28 00:11:31;;;;;;;9.63;4.15;;;;;;;3.46;87.26;98180.19;1722784;83;21047;-40
2022/01/28 00:14:16;;;;;;;7.60;3.95;;;;;;;3.46;87.29;98183.62;1722834;83;20983;-40
2022/01/28 00:38:32;;;;;;;7.03;3.30;;;;;;;3.49;86.44;98166.20;1723009;83;21019;-39
2022/01/28 00:40:53;;;;;;;7.67;3.55;;;;;;;3.51;86.48;98166.54;1721273;83;21056;-40
2022/01/28 00:43:19;;;;;;;9.55;3.58;;;;;;;3.49;86.56;98163.14;1722791;83;21632;-40
2022/01/28 00:45:45;;;;;;;9.83;3.80;;;;;;;3.41;86.76;98150.95;1722563;83;21023;-40
2022/01/28 00:48:11;;;;;;;8.30;3.70;;;;;;;3.45;86.52;98165.03;1722710;83;21027;-40
2022/01/28 00:50:37;;;;;;;8.15;3.65;;;;;;;3.48;86.60;98145.04;1722798;82;21498;-39
2022/01/28 00:53:03;;;;;;;7.45;3.67;;;;;;;3.39;86.55;98137.19;1722788;83;21007;-40
2022/01/28 00:55:29;;;;;;;9.43;3.75;;;;;;;3.30;86.65;98141.03;1722867;83;21469;-40
2022/01/28 00:57:55;;;;;;;5.65;3.02;;;;;;;3.35;86.39;98159.88;1722732;83;21520;-40
2022/01/28 01:00:21;;;;;;;8.53;4.05;;;;;;;3.31;85.96;98146.63;1722824;83;20995;-39
2022/01/28 01:02:47;;;;;;;7.35;3.37;;;;;;;3.37;86.22;98141.16;1723235;83;20995;-40
2022/01/28 01:05:13;;;;;;;6.12;2.98;;;;;;;3.30;85.54;98133.23;1722993;83;21473;-39
2022/01/28 01:07:39;;;;;;;7.62;3.45;;;;;;;3.43;85.53;98123.97;1722821;83;21050;-39
2022/01/28 01:10:06;;;;;;;6.17;3.17;;;;;;;3.45;85.25;98121.31;1723270;83;21476;-40
2022/01/28 01:12:36;;;;;;;11.12;4.60;;;;;;;3.45;84.78;98127.34;1722581;83;20972;-40
2022/01/28 01:15:00;;;;;;;8.05;3.15;;;;;;;3.35;84.51;98129.98;1722263;83;21031;-40
2022/01/28 01:17:32;;;;;;;7.62;2.70;;;;;;;3.33;84.24;98121.86;1722775;83;21048;-39
2022/01/28 01:20:08;;;;;;;;;;;;;;;3.37;83.43;98128.63;1724465;83;20963;-40
2022/01/28 01:22:22;;;;;;;12.88;4.80;;;;;;;3.29;82.98;98138.03;1720798;83;20097;-39
2022/01/28 01:24:51;;;;;;;10.85;4.55;;;;;;;3.31;83.31;98155.73;1723020;83;21003;-40
2022/01/28 01:27:17;;;;;;;12.33;3.83;;;;;;;3.22;82.98;98140.52;1722581;83;20984;-39
2022/01/28 01:29:45;;;;;;;;;;;;;;;3.30;83.50;98139.73;1725388;83;21505;-40
2022/01/28 01:32:15;;;;;;;10.23;3.27;;;;;;;3.28;83.35;98148.52;1722890;83;20117;-39
2022/01/28 01:34:38;;;;;;;9.33;2.92;;;;;;;3.23;83.46;98133.95;1722509;83;20991;-40
2022/01/28 01:37:04;;;;;;;8.30;2.40;;;;;;;3.27;83.59;98141.16;1722809;83;21003;-40
2022/01/28 01:39:34;;;;;;;6.28;2.67;;;;;;;3.26;83.46;98125.20;1722887;83;20964;-39
2022/01/28 01:42:11;;;;;;;11.15;4.25;;;;;;;3.22;83.42;98130.12;1722462;83;21524;-40
2022/01/28 01:52:42;;;;;;;7.12;2.75;;;;;;;3.28;83.51;98109.55;1723160;83;21019;-39
2022/01/28 01:55:09;;;;;;;8.50;2.40;;;;;;;3.30;83.35;98096.03;1722919;83;20972;-39
2022/01/28 01:57:35;;;;;;;11.70;2.85;;;;;;;3.21;82.90;98092.08;1723024;83;21855;-40
2022/01/28 02:00:03;;;;;;;8.30;2.98;;;;;;;3.24;82.79;98097.15;1722950;83;21034;-39
2022/01/28 02:02:28;;;;;;;5.92;2.50;;;;;;;3.23;82.64;98094.15;1722965;83;21003;-39
2022/01/28 02:04:54;;;;;;;5.83;2.22;;;;;;;3.22;82.46;98087.25;1722937;83;21504;-40
2022/01/28 02:07:20;;;;;;;8.45;2.15;;;;;;;3.25;82.48;98080.63;1722867;83;21047;-40
2022/01/28 02:09:46;;;;;;;6.40;2.08;;;;;;;3.20;82.42;98068.30;1723099;83;21032;-40
2022/01/28 02:12:12;;;;;;;5.25;2.35;;;;;;;3.19;82.61;98080.92;1723318;83;21032;-40
2022/01/28 02:14:38;;;;;;;8.25;2.30;;;;;;;3.16;83.34;98071.95;1723213;83;20996;-40
2022/01/28 02:17:05;;;;;;;4.97;2.05;;;;;;;3.15;83.42;98063.79;1722880;83;21027;-40
2022/01/28 02:19:31;;;;;;;8.20;2.12;;;;;;;3.04;83.57;98066.40;1723010;83;21831;-39
2022/01/28 02:21:56;;;;;;;5.97;1.80;;;;;;;3.06;83.87;98075.42;1722780;83;21027;-39
2022/01/28 02:24:29;;;;;;;6.80;2.42;;;;;;;2.98;84.57;98078.34;1723263;83;21489;-40
2022/01/28 02:26:50;;;;;;;7.00;1.85;;;;;;;2.87;84.62;98056.77;1722115;83;20976;-42
2022/01/28 02:29:26;;;;;;;5.78;1.65;;;;;;;2.90;85.02;98070.52;1723313;83;21477;-39
2022/01/28 02:31:44;;;;;;;6.67;1.90;;;;;;;2.91;85.24;98061.38;1721494;83;21020;-40
2022/01/28 02:34:11;;;;;;;7.12;1.90;;;;;;;2.85;85.58;98065.52;1723086;83;20995;-39
2022/01/28 02:36:38;;;;;;;7.80;1.90;;;;;;;2.73;86.34;98085.08;1723189;83;21533;-40
2022/01/28 02:39:05;;;;;;;8.03;1.98;;;;;;;2.66;87.03;98079.75;1723105;83;21484;-39
2022/01/28 02:46:09;;;;;;;6.90;2.35;;;;;;;2.55;88.37;98080.20;1792954;80;21023;-37
2022/01/28 02:48:32;;;;;;;6.30;1.75;;;;;;;2.52;88.94;98073.01;1791593;80;20975;-38
2022/01/28 02:53:53;;;;;;;7.67;1.80;;;;;;;2.42;89.57;98082.48;1793177;80;20116;-38
2022/01/28 02:56:22;;;;;;;5.42;1.52;;;;;;;2.34;90.00;98072.02;1792000;80;21491;-38
2022/01/28 02:58:45;;;;;;;4.92;1.98;;;;;;;2.26;90.73;98070.58;1791821;80;21002;-38
2022/01/28 03:01:15;;;;;;;4.83;1.95;;;;;;;2.23;91.09;98072.00;1793153;80;20990;-38
2022/01/28 03:03:46;;;;;;;10.53;1.90;;;;;;;2.15;91.94;98067.59;1793054;80;21535;-38
2022/01/28 03:06:14;;;;;;;9.90;2.08;;;;;;;2.17;91.67;98078.74;1793029;80;21025;-39
2022/01/28 03:08:46;;;;;;;9.00;2.00;;;;;;;2.19;91.40;98077.39;1793093;80;21132;-40
2022/01/28 03:16:19;;;;;;;5.60;1.67;;;;;;;2.15;92.34;98063.70;1793125;80;20986;-37
2022/01/28 03:19:00;;;;;;;8.38;2.10;;;;;;;2.16;92.54;98059.35;1792644;80;21436;-38
2022/01/28 03:23:57;;;;;;;9.10;1.98;;;;;;;2.11;92.73;98071.19;1793134;80;21658;-38
2022/01/28 03:26:25;;;;;;;;;;;;;;;2.09;92.98;98066.53;1795694;80;20994;-37
2022/01/28 03:28:51;;;;;;;9.95;2.12;;;;;;;2.14;93.33;98076.27;1792961;80;20116;-37
2022/01/28 03:31:17;;;;;;;6.72;2.20;;;;;;;2.17;92.67;98098.20;1792992;80;21054;-37
2022/01/28 03:33:44;;;;;;;6.40;2.02;;;;;;;2.03;93.38;98079.75;1792963;80;21506;-38
2022/01/28 03:36:11;;;;;;;7.57;1.83;;;;;;;2.08;93.41;98069.58;1793320;80;21487;-38
2022/01/28 03:38:39;;;;;;;5.08;1.80;;;;;;;2.01;93.78;98067.30;1793001;80;20951;-38
2022/01/28 03:41:12;;;;;;;4.30;1.67;;;;;;;2.03;93.94;98064.20;1793001;80;20990;-38
2022/01/28 03:43:35;;;;;;;4.95;1.50;;;;;;;1.96;94.20;98067.94;1779119;80;21012;-38
2022/01/28 03:46:01;;;;;;;6.65;1.90;;;;;;;1.94;94.83;98073.17;1779445;80;20963;-38
2022/01/28 03:48:27;;;;;;;9.80;2.30;;;;;;;1.86;95.31;98081.27;1779432;80;21031;-38
2022/01/28 03:50:52;;;;;;;5.65;1.60;;;;;;;1.88;95.71;98083.80;1779448;80;20991;-38
2022/01/28 03:53:18;;;;;;;7.42;1.75;;;;;;;1.81;95.86;98074.12;1779348;80;21540;-38
2022/01/28 03:55:46;;;;;;;6.58;2.27;;;;;;;1.77;95.97;98085.52;1779074;81;20952;-38
2022/01/28 03:58:12;;;;;;;;;;;;;;;1.75;96.29;98091.22;1781513;80;21184;-39
2022/01/28 04:00:38;;;;;;;5.33;2.42;;;;;;;1.75;96.83;98067.02;1778903;81;20104;-38
2022/01/28 04:11:29;;;;;;;6.10;2.40;;;;;;;1.86;96.86;98079.97;1778847;80;20963;-38
2022/01/28 04:14:20;;;;;;;8.53;2.12;;;;;;;1.88;96.87;98093.72;1778895;81;21000;-38
2022/01/28 04:19:25;;;;;;;7.12;2.42;;;;;;;1.89;97.55;98086.34;1778854;81;21472;-38
2022/01/28 04:21:52;;;;;;;7.05;2.30;;;;;;;1.92;97.47;98078.42;1778814;80;21003;-38
2022/01/28 04:24:18;;;;;;;4.42;1.77;;;;;;;1.96;97.28;98097.30;1778968;80;20995;-38
2022/01/28 04:26:44;;;;;;;6.45;2.45;;;;;;;1.99;97.18;98088.56;1778879;81;20983;-38
2022/01/28 04:29:11;;;;;;;11.33;2.62;;;;;;;2.05;96.98;98125.91;1778854;80;20984;-38
2022/01/28 04:31:43;;;;;;;;;;;;;;;2.05;97.03;98092.20;1781622;80;20998;-38
2022/01/28 04:34:05;;;;;;;8.23;2.47;;;;;;;2.05;97.08;98100.81;1778043;80;20145;-39
2022/01/28 04:36:36;;;;;;;4.25;1.70;;;;;;;2.12;96.73;98105.31;1778847;81;21082;-38
2022/01/28 04:39:09;;;;;;;;;;;;;;;2.11;96.73;98099.29;1780580;81;21026;-39
2022/01/28 04:44:08;;;;;;;8.50;1.90;;;;;;;2.18;96.54;98097.27;1753365;80;21055;-39
2022/01/28 04:46:37;;;;;;;4.85;1.65;;;;;;;2.22;96.14;98114.42;1785291;80;21126;-38
2022/01/28 04:49:03;;;;;;;;;;;;;;;2.26;95.77;98117.28;1787660;80;21543;-38
2022/01/28 04:51:52;;;;;;;6.60;1.90;;;;;;;2.25;95.82;98124.66;1785019;80;20168;-38
2022/01/28 04:54:13;;;;;;;6.27;1.90;;;;;;;2.27;95.70;98126.77;1782943;80;20955;-38
2022/01/28 04:57:02;;;;;;;3.17;1.70;;;;;;;2.27;95.55;98142.75;1784707;80;21018;-38
2022/01/28 05:01:57;;;;;;;6.45;2.05;;;;;;;2.25;95.35;98130.30;1787084;80;21026;-38
2022/01/28 05:12:09;;;;;;;10.38;2.25;;;;;;;2.27;95.55;98142.75;1787079;80;20974;-38
2022/01/28 05:17:01;;;;;;;5.37;1.90;;;;;;;2.21;95.48;98152.92;1787080;80;20975;-38
2022/01/28 05:27:18;;;;;;;7.72;2.00;;;;;;;2.11;96.82;98154.19;1787096;80;21055;-39
2022/01/28 05:29:45;;;;;;;6.67;2.10;;;;;;;2.11;97.27;98154.19;1787111;80;21026;-39
2022/01/28 05:32:12;;;;;;;7.35;2.17;;;;;;;2.15;97.48;98163.55;1787248;80;20959;-39
2022/01/28 05:34:39;;;;;;;11.63;2.33;;;;;;;2.19;97.36;98153.91;1787000;80;21022;-39
2022/01/28 05:37:06;;;;;;;8.85;2.20;;;;;;;2.17;97.34;98162.20;1787200;80;20987;-39
2022/01/28 05:39:32;;;;;;;6.60;2.15;;;;;;;2.18;97.61;98163.41;1787202;80;21527;-39
2022/01/28 05:41:58;;;;;;;3.77;1.65;;;;;;;2.18;97.68;98168.60;1786398;80;21491;-38
2022/01/28 05:44:24;;;;;;;10.00;2.27;;;;;;;2.18;97.90;98169.06;1778820;81;20999;-40
2022/01/28 05:46:52;;;;;;;13.72;2.65;;;;;;;2.22;97.77;98188.35;1778934;81;20987;-39
2022/01/28 05:49:18;;;;;;;13.90;2.77;;;;;;;2.19;97.92;98156.04;1778737;80;21953;-39
2022/01/28 05:51:44;;;;;;;11.85;2.72;;;;;;;2.18;97.77;98168.60;1778793;80;20964;-39
2022/01/28 05:54:10;;;;;;;12.05;3.08;;;;;;;2.24;97.65;98168.84;1778791;81;21034;-39
2022/01/28 05:56:36;;;;;;;13.03;3.10;;;;;;;2.23;97.58;98164.08;1779042;80;20999;-39
2022/01/28 05:59:03;;;;;;;10.45;2.90;;;;;;;2.14;97.32;98182.60;1778811;81;20995;-39
2022/01/28 06:01:29;;;;;;;10.58;2.22;;;;;;;2.17;97.45;98164.80;1778760;81;20996;-39
2022/01/28 06:03:54;;;;;;;10.30;2.62;;;;;;;2.14;97.23;98181.30;1778767;81;20999;-40
2022/01/28 06:06:22;;;;;;;13.13;2.87;;;;;;;2.13;97.26;98186.12;1778786;80;20968;-38
2022/01/28 06:08:49;;;;;;;;;;;;;;;2.05;97.29;98178.61;1781422;81;20971;-38
2022/01/28 06:11:16;;;;;;;21.20;3.30;;;;;;;2.02;97.46;98193.02;1778958;81;20125;-39
2022/01/28 06:13:42;;;;;;;14.33;2.75;;;;;;;2.02;97.60;98194.30;1778916;81;21618;-39
2022/01/28 06:16:12;;;;;;;15.53;2.77;;;;;;;2.01;97.52;98200.84;1778769;81;20964;-38
2022/01/28 06:18:39;;;;;;;11.35;2.60;;;;;;;1.91;97.69;98215.45;1778729;81;21508;-39
2022/01/28 06:21:05;;;;;;;9.35;2.47;;;;;;;1.90;98.05;98217.64;1778813;80;20963;-39
2022/01/28 06:23:32;;;;;;;11.35;2.37;;;;;;;1.85;98.06;98214.37;1778792;80;20991;-38
2022/01/28 06:25:58;;;;;;;10.23;2.33;;;;;;;1.77;98.29;98224.66;1778953;81;21467;-38
2022/01/28 06:28:24;;;;;;;10.58;2.60;;;;;;;1.72;98.58;98227.40;1778784;81;20975;-39
2022/01/28 06:30:50;;;;;;;9.08;2.47;;;;;;;1.69;99.03;98224.91;1778733;81;20994;-39
2022/01/28 06:33:16;;;;;;;9.25;2.30;;;;;;;1.61;99.46;98242.03;1778761;81;20988;-38
2022/01/28 06:35:44;;;;;;;6.33;2.00;;;;;;;1.62;99.75;98242.88;1778764;81;21024;-39
2022/01/28 06:38:11;;;;;;;9.18;2.40;;;;;;;1.66;99.96;98257.44;1778784;81;21035;-39
2022/01/28 06:40:38;;;;;;;18.87;8.50;;;;;;;1.62;99.92;98234.67;1778898;81;20968;-38
2022/01/28 06:43:12;;;;;;;11.53;3.40;;;;;;;1.63;99.90;98271.33;1775789;80;21047;-38
2022/01/28 06:45:41;;;;;;;13.00;2.92;;;;;;;1.58;100.00;98249.91;1771689;81;20996;-38
2022/01/28 06:48:10;;;;;;;7.15;2.77;;;;;;;1.64;100.00;98259.23;1771333;81;20983;-39
2022/01/28 06:50:42;;;;;;;12.73;3.08;;;;;;;1.64;100.00;98260.53;1771593;81;21011;-38
2022/01/28 06:53:09;;;;;;;7.90;2.65;;;;;;;1.70;100.00;98268.08;1771629;81;20996;-39
2022/01/28 06:55:35;;;;;;;9.18;3.00;;;;;;;1.72;100.00;98268.41;1771752;81;20999;-38
2022/01/28 06:58:03;;;;;;;8.80;2.87;;;;;;;1.69;100.00;98272.86;1771594;81;21120;-39
2022/01/28 07:00:30;;;;;;;;;;;;;;;1.69;100.00;98284.52;1774395;81;21035;-39
2022/01/28 07:02:56;;;;;;;13.65;2.70;;;;;;;1.70;100.00;98266.78;1771628;80;20105;-39
2022/01/28 07:05:22;;;;;;;21.35;6.15;;;;;;;1.72;100.00;98296.08;1771612;81;20991;-39
2022/01/28 07:07:47;;;;;;;46.23;17.35;;;;;;;1.67;100.00;98279.84;1771573;81;20972;-38
2022/01/28 07:10:13;;;;;;;51.88;20.77;;;;;;;1.68;100.00;98282.84;1771705;81;21031;-42
2022/01/28 07:12:39;;;;;;;12.47;5.80;;;;;;;1.70;100.00;98303.91;1771652;81;21011;-39
2022/01/28 07:15:06;;;;;;;10.28;3.75;;;;;;;1.75;100.00;98340.05;1771659;81;21039;-39
2022/01/28 07:17:32;;;;;;;5.55;2.42;;;;;;;1.75;100.00;98299.88;1771779;81;21507;-39
2022/01/28 07:19:58;;;;;;;9.70;4.20;;;;;;;1.69;100.00;98307.84;1771647;81;21015;-39
2022/01/28 07:22:23;;;;;;;24.87;12.43;;;;;;;1.68;100.00;98326.91;1771527;81;20996;-38
2022/01/28 07:24:49;;;;;;;17.00;9.28;;;;;;;1.70;100.00;98330.28;1771589;81;20995;-38
2022/01/28 07:27:19;;;;;;;13.58;6.37;;;;;;;1.72;100.00;98345.33;1771637;80;21031;-38
2022/01/28 07:29:42;;;;;;;;;;;;;;;1.68;100.00;98339.86;1773863;81;20976;-39
2022/01/28 07:32:08;;;;;;;15.93;5.65;;;;;;;1.67;100.00;98351.11;1771837;81;20105;-38
2022/01/28 07:34:34;;;;;;;10.98;3.90;;;;;;;1.70;100.00;98359.63;1771782;81;20991;-39
2022/01/28 07:37:00;;;;;;;10.82;3.87;;;;;;;1.66;100.00;98363.23;1771791;81;20960;-39
2022/01/28 07:39:27;;;;;;;6.33;3.05;;;;;;;1.58;100.00;98374.75;1771760;81;21007;-39
2022/01/28 07:41:53;;;;;;;9.10;3.20;;;;;;;1.60;100.00;98366.47;1771947;81;21050;-38
2022/01/28 07:44:19;;;;;;;6.05;2.83;;;;;;;1.54;100.00;98374.01;1771675;80;20981;-38
2022/01/28 07:46:45;;;;;;;7.53;3.00;;;;;;;1.62;100.00;98379.80;1771715;81;20999;-39
2022/01/28 07:49:10;;;;;;;5.92;2.67;;;;;;;1.68;100.00;98390.40;1771758;80;20987;-40
2022/01/28 07:51:36;;;;;;;7.50;3.02;;;;;;;1.65;100.00;98399.56;1771759;81;20988;-40
2022/01/28 07:54:03;;;;;;;9.43;3.35;;;;;;;1.60;100.00;98404.92;1771695;80;20988;-40
2022/01/28 07:56:29;;;;;;;7.70;2.60;;;;;;;1.52;100.00;98414.67;1771884;81;21031;-39
2022/01/28 07:58:55;;;;;;;4.72;2.10;;;;;;;1.47;100.00;98427.77;1771839;81;21453;-40
2022/01/28 08:01:21;;;;;;;8.48;2.42;;;;;;;1.47;100.00;98427.77;1771775;81;21438;-40
2022/01/28 08:03:46;;;;;;;7.95;2.30;;;;;;;1.45;100.00;98428.72;1771671;81;21010;-39
2022/01/28 08:06:12;;;;;;;4.92;2.22;;;;;;;1.45;100.00;98433.45;1771739;81;20998;-38
2022/01/28 08:08:38;;;;;;;4.37;2.25;;;;;;;1.43;100.00;98445.61;1771666;80;21038;-38
2022/01/28 08:11:04;;;;;;;6.65;2.35;;;;;;;1.39;100.00;98447.91;1771739;80;21004;-38
2022/01/28 08:13:30;;;;;;;3.65;2.05;;;;;;;1.38;100.00;98447.48;1771820;81;20999;-38
2022/01/28 08:15:55;;;;;;;4.45;2.02;;;;;;;1.39;100.00;98464.74;1771788;81;21477;-38
2022/01/28 08:18:21;;;;;;;5.97;2.22;;;;;;;1.39;100.00;98454.37;1771857;80;21465;-38
2022/01/28 08:20:47;;;;;;;4.92;2.62;;;;;;;1.45;100.00;98461.95;1771836;81;21023;-38
2022/01/28 08:23:14;;;;;;;5.17;2.30;;;;;;;1.43;100.00;98468.92;1771639;81;21461;-39
2022/01/28 08:25:40;;;;;;;7.65;2.72;;;;;;;1.49;100.00;98474.36;1771895;81;20988;-39
2022/01/28 08:28:06;;;;;;;5.67;2.72;;;;;;;1.44;100.00;98471.09;1771762;81;21004;-38
2022/01/28 08:30:37;;;;;;;10.03;2.70;;;;;;;1.48;100.00;98486.93;1771819;81;20989;-38
2022/01/28 08:33:01;;;;;;;6.03;2.62;;;;;;;1.56;100.00;98485.38;1771251;81;21459;-39
2022/01/28 08:35:33;;;;;;;9.43;2.52;;;;;;;1.52;100.00;98485.47;1771742;80;20979;-39
2022/01/28 08:37:59;;;;;;;9.50;3.10;;;;;;;1.53;100.00;98491.52;1771426;80;20940;-39
2022/01/28 08:40:27;;;;;;;9.80;3.05;;;;;;;1.57;100.00;98493.57;1772080;81;21501;-38
2022/01/28 08:42:54;;;;;;;6.62;3.40;;;;;;;1.62;100.00;98503.32;1771700;81;21202;-39
2022/01/28 08:45:20;;;;;;;10.55;4.20;;;;;;;1.66;100.00;98515.30;1771779;81;20984;-39
2022/01/28 08:47:46;;;;;;;8.78;3.55;;;;;;;1.70;100.00;98503.94;1771757;81;21484;-39
2022/01/28 08:50:12;;;;;;;12.25;3.25;;;;;;;1.69;100.00;98502.23;1771738;81;21472;-39
2022/01/28 08:52:38;;;;;;;12.03;3.40;;;;;;;1.75;100.00;98515.02;1771720;81;21144;-38
2022/01/28 08:55:05;;;;;;;14.20;3.70;;;;;;;1.79;100.00;98524.38;1771743;81;21023;-39
2022/01/28 08:57:31;;;;;;;;;;;;;;;1.85;100.00;98534.55;1774378;81;21035;-38
2022/01/28 08:59:57;;;;;;;9.23;2.85;;;;;;;1.86;100.00;98548.38;1771851;81;20385;-39
2022/01/28 09:02:23;;;;;;;10.28;3.25;;;;;;;1.86;100.00;98553.56;1771780;80;20964;-40
2022/01/28 09:04:49;;;;;;;9.43;2.65;;;;;;;1.92;100.00;98555.95;1771735;81;21528;-39
2022/01/28 09:07:18;;;;;;;9.63;2.95;;;;;;;1.86;100.00;98582.08;1771722;81;21066;-39
2022/01/28 09:09:49;;;;;;;10.58;3.17;;;;;;;1.86;100.00;98586.81;1771473;81;21437;-39
2022/01/28 09:12:34;;;;;;;8.48;3.27;;;;;;;1.66;100.00;98615.93;1770696;81;21014;-40
2022/01/28 09:14:47;;;;;;;3.52;1.55;;;;;;;1.53;100.00;98628.41;1768513;81;21083;-39
2022/01/28 09:17:13;;;;;;;2.25;1.40;;;;;;;1.41;100.00;98623.58;1771746;81;20992;-39
2022/01/28 09:19:39;;;;;;;2.85;1.35;;;;;;;1.10;100.00;98610.20;1771671;81;21027;-39
2022/01/28 09:22:04;;;;;;;2.72;1.10;;;;;;;0.91;100.00;98627.11;1771677;81;20976;-41
2022/01/28 09:24:30;;;;;;;2.33;1.02;;;;;;;0.82;100.00;98627.36;1771705;81;20960;-39
2022/01/28 09:26:56;;;;;;;2.42;1.20;;;;;;;0.86;100.00;98627.70;1771679;81;21027;-39
2022/01/28 09:29:22;;;;;;;1.92;1.40;;;;;;;0.72;100.00;98635.37;1771703;81;21000;-39
2022/01/28 09:31:49;;;;;;;3.22;1.70;;;;;;;0.69;100.00;98650.13;1771953;81;20960;-39
2022/01/28 09:34:15;;;;;;;1.90;1.60;;;;;;;0.67;100.00;98666.98;1771111;81;21650;-39
2022/01/28 09:36:41;;;;;;;1.87;1.67;;;;;;;0.62;100.00;98658.93;1771602;81;21015;-39
2022/01/28 09:39:07;;;;;;;1.98;1.62;;;;;;;0.54;100.00;98668.19;1771733;80;21035;-39
2022/01/28 09:41:35;;;;;;;3.70;1.70;;;;;;;0.46;100.00;98667.53;1771286;81;21007;-39
2022/01/28 09:44:02;;;;;;;3.12;1.85;;;;;;;0.58;100.00;98674.97;1775269;80;20992;-39
2022/01/28 09:46:28;;;;;;;7.45;2.52;;;;;;;0.53;100.00;98670.38;1778553;80;21022;-40
2022/01/28 09:48:55;;;;;;;4.30;2.70;;;;;;;0.66;100.00;98671.77;1778577;80;20999;-39
2022/01/28 09:51:21;;;;;;;4.17;2.50;;;;;;;0.69;100.00;98684.64;1778679;80;21497;-40
2022/01/28 09:53:47;;;;;;;3.05;2.40;;;;;;;0.80;100.00;98675.31;1778766;80;21516;-48
2022/01/28 09:56:13;;;;;;;5.50;1.80;;;;;;;0.87;100.00;98682.45;1778458;80;20999;-39
2022/01/28 09:58:39;;;;;;;3.62;2.00;;;;;;;0.92;100.00;98686.62;1780203;80;21437;-39
2022/01/28 10:01:04;;;;;;;7.35;2.35;;;;;;;0.98;100.00;98688.20;1784288;80;21038;-39
2022/01/28 10:03:30;;;;;;;4.90;2.00;;;;;;;1.03;100.00;98691.98;1783544;80;21050;-39
2022/01/28 10:05:58;;;;;;;5.12;2.50;;;;;;;1.11;100.00;98694.77;1783183;80;21022;-39
2022/01/28 10:08:26;;;;;;;;;;;;;;;1.24;100.00;98704.81;1786470;80;21003;-39
2022/01/28 10:11:08;;;;;;;8.58;2.80;;;;;;;1.31;100.00;98709.78;1783242;80;20448;-39
2022/01/28 10:13:47;;;;;;;4.90;2.50;;;;;;;1.41;100.00;98707.77;1782430;80;21098;-39
2022/01/28 10:16:22;;;;;;;4.85;2.72;;;;;;;1.45;100.00;98718.45;1783275;80;21079;-39
2022/01/28 10:19:00;;;;;;;5.45;2.50;;;;;;;1.59;100.00;98731.49;1784215;80;21046;-40
2022/01/28 10:21:37;;;;;;;8.60;3.10;;;;;;;1.64;100.00;98725.73;1782284;80;21002;-40
2022/01/28 10:24:15;;;;;;;7.58;3.00;;;;;;;1.67;100.00;98730.81;1782753;80;21055;-40
2022/01/28 10:27:05;;;;;;;6.62;2.45;;;;;;;1.72;100.00;98734.97;1783822;80;21007;-40
2022/01/28 10:29:32;;;;;;;5.42;2.55;;;;;;;1.73;100.00;98735.84;1780828;80;20984;-40
2022/01/28 10:32:14;;;;;;;7.85;3.02;;;;;;;1.78;100.00;98757.73;1739540;82;21505;-39
2022/01/28 10:34:49;;;;;;;5.28;2.15;;;;;;;1.81;100.00;98760.25;1738286;82;21063;-40
2022/01/28 10:37:32;;;;;;;6.70;2.77;;;;;;;1.95;100.00;98758.54;1746053;81;20992;-40
2022/01/28 10:40:10;;;;;;;6.30;3.00;;;;;;;1.98;100.00;98763.65;1752954;81;20979;-40
2022/01/28 10:42:49;;;;;;;4.90;2.70;;;;;;;1.98;100.00;98766.24;1752518;82;21535;-39
2022/01/28 10:45:14;;;;;;;4.42;2.10;;;;;;;1.95;100.00;98777.98;1753016;81;21517;-39
2022/01/28 10:47:48;;;;;;;4.30;2.20;;;;;;;2.00;99.12;98787.79;1752833;82;21500;-39
2022/01/28 10:50:33;;;;;;;4.67;2.05;;;;;;;2.00;98.78;98778.29;1752848;82;21014;-38
2022/01/28 10:53:13;;;;;;;3.12;2.22;;;;;;;2.05;98.68;98784.16;1752559;82;21006;-40
2022/01/28 10:55:46;;;;;;;4.22;2.15;;;;;;;2.07;98.59;98801.86;1752349;82;21320;-40
2022/01/28 10:58:15;;;;;;;14.43;5.42;;;;;;;2.03;98.86;98800.68;1754775;81;21461;-40
2022/01/28 11:00:45;;;;;;;7.40;3.50;;;;;;;2.04;99.06;98806.28;1777517;81;21457;-39
2022/01/28 11:03:14;;;;;;;8.68;3.45;;;;;;;2.10;99.30;98815.17;1736853;80;21378;-40
2022/01/28 11:05:41;;;;;;;6.50;4.08;;;;;;;1.97;99.17;98816.42;1736610;82;21604;-40
2022/01/28 11:08:11;;;;;;;7.00;3.10;;;;;;;2.00;99.40;98816.31;1737440;82;21445;-40
2022/01/28 11:10:39;;;;;;;7.08;3.00;;;;;;;1.98;99.76;98818.11;1747329;82;21519;-39
2022/01/28 11:13:05;;;;;;;11.03;4.15;;;;;;;2.03;100.00;98827.45;1795075;79;20944;-39
2022/01/28 11:15:32;;;;;;;11.00;5.50;;;;;;;2.02;100.00;98833.98;1809363;79;20999;-39
2022/01/28 11:18:00;;;;;;;8.88;4.05;;;;;;;2.04;100.00;98840.84;1810470;79;20983;-39
2022/01/28 11:20:35;;;;;;;8.88;4.00;;;;;;;1.94;99.44;98832.06;1809814;79;20960;-39
2022/01/28 11:23:35;;;;;;;6.95;3.75;;;;;;;2.05;98.88;98843.82;1809588;79;21079;-39
2022/01/28 11:26:27;;;;;;;5.12;2.95;;;;;;;2.05;98.11;98850.76;1809883;79;22198;-39
2022/01/28 11:28:56;;;;;;;9.63;2.83;;;;;;;2.10;97.97;98855.38;1787550;79;22445;-39
2022/01/28 11:31:45;;;;;;;3.72;3.00;;;;;;;2.09;97.00;98852.37;1810534;79;21003;-39
2022/01/28 11:34:24;;;;;;;4.97;3.47;;;;;;;2.07;96.36;98864.53;1694979;83;21041;-38
2022/01/28 11:36:56;;;;;;;3.75;3.05;;;;;;;2.07;95.12;98857.63;1695534;83;21102;-38
2022/01/28 11:39:38;;;;;;;5.85;2.70;;;;;;;2.08;93.72;98866.25;1668548;85;21098;-39
2022/01/28 11:42:16;;;;;;;2.25;1.90;;;;;;;2.18;93.22;98862.94;1665611;85;21063;-39
2022/01/28 11:44:58;;;;;;;3.75;2.62;;;;;;;2.20;94.07;98874.99;1663873;84;21601;-40
2022/01/28 11:47:33;;;;;;;5.85;2.70;;;;;;;2.32;93.27;98880.72;1659891;86;21023;-39
2022/01/28 11:50:10;;;;;;;3.58;2.33;;;;;;;2.43;93.91;98889.05;1659886;86;21066;-39
2022/01/28 11:52:47;;;;;;;;;;;;;;;2.56;94.23;98895.58;1662449;86;21927;-39
2022/01/28 11:55:25;;;;;;;4.83;2.70;;;;;;;2.48;93.57;98898.40;1660025;86;20120;-39
2022/01/28 11:58:06;;;;;;;3.75;2.42;;;;;;;2.40;92.30;98904.27;1660186;85;21067;-40
2022/01/28 12:00:41;;;;;;;6.20;2.12;;;;;;;2.76;94.16;98907.12;1660322;86;21079;-39
2022/01/28 12:03:26;;;;;;;5.87;2.80;;;;;;;2.81;92.56;98913.88;1660054;86;21168;-39
2022/01/28 12:05:56;;;;;;;3.62;2.05;;;;;;;2.74;90.45;98894.19;1708785;82;21021;-39
2022/01/28 12:08:30;;;;;;;2.75;2.15;;;;;;;2.75;89.52;98909.31;1722320;83;20984;-39
2022/01/28 12:10:56;;;;;;;5.17;2.35;;;;;;;2.61;88.15;98905.38;1723030;82;21077;-39
2022/01/28 12:13:32;;;;;;;8.70;3.98;;;;;;;2.79;89.59;98908.34;1723202;83;21021;-40
2022/01/28 12:16:11;;;;;;;3.20;1.80;;;;;;;2.94;90.71;98922.16;1723035;83;21006;-39
2022/01/28 12:18:54;;;;;;;4.70;2.42;;;;;;;2.94;87.50;98906.58;1722134;83;21431;-40
2022/01/28 12:21:29;;;;;;;4.97;2.72;;;;;;;2.94;88.64;98923.45;1723073;83;20982;-39
2022/01/28 12:24:20;;;;;;;4.53;2.30;;;;;;;2.92;87.58;98935.64;1722350;82;21013;-40
2022/01/28 12:27:05;;;;;;;3.42;2.20;;;;;;;2.82;88.10;98938.09;1722702;83;21005;-39
2022/01/28 12:29:34;;;;;;;6.45;2.60;;;;;;;2.80;89.33;98935.57;1723508;83;20981;-39
2022/01/28 12:32:01;;;;;;;3.33;2.20;;;;;;;2.59;90.13;98951.31;1722652;83;21076;-38
2022/01/28 12:34:27;;;;;;;3.33;2.45;;;;;;;2.45;91.48;98956.03;1723429;82;20970;-39
2022/01/28 12:36:58;;;;;;;4.20;2.02;;;;;;;2.27;92.35;98964.74;1723480;83;21491;-39
2022/01/28 12:39:38;;;;;;;4.55;2.95;;;;;;;2.16;93.34;98958.96;1722545;82;21079;-39
2022/01/28 12:42:02;;;;;;;2.70;2.15;;;;;;;2.10;94.12;98966.46;1719644;83;21037;-39
2022/01/28 12:44:23;;;;;;;5.03;3.15;;;;;;;2.14;95.00;98978.91;1731759;82;21007;-39
2022/01/28 12:46:54;;;;;;;5.72;3.27;;;;;;;2.02;95.52;98967.13;1753644;82;21785;-39
2022/01/28 12:49:31;;;;;;;4.25;3.20;;;;;;;2.01;95.93;98984.02;1751737;81;21500;-39
2022/01/28 12:52:04;;;;;;;4.87;3.35;;;;;;;1.92;96.14;98982.05;1753398;82;20978;-39
2022/01/28 12:54:42;;;;;;;2.83;2.33;;;;;;;1.91;96.33;98977.77;1753076;82;20982;-39
2022/01/28 12:57:11;;;;;;;2.62;1.85;;;;;;;1.88;96.11;99001.17;1752663;82;21046;-39
2022/01/28 12:59:39;;;;;;;2.50;2.12;;;;;;;1.67;95.73;98995.20;1752273;81;21011;-40
2022/01/28 13:02:06;;;;;;;2.05;1.90;;;;;;;1.67;96.29;98998.67;1753217;82;21030;-39
2022/01/28 13:04:51;;;;;;;3.90;2.58;;;;;;;1.67;96.77;99005.58;1753084;82;21047;-39
2022/01/28 13:09:50;;;;;;;3.87;2.17;;;;;;;1.67;96.33;99018.53;1753457;82;20971;-39
2022/01/28 13:12:29;;;;;;;2.12;1.90;;;;;;;1.73;96.09;99019.70;1753228;82;21037;-39